sensor_id;sensor_type;location;lat;lon;timestamp;P1;P2;P0
76679;PMS5003;65597;51.520;-0.224;2023-03-31T00:01:55;10;6;
76679;PMS5003;65597;51.520;-0.224;2023-03-31T00:04:21;8;6;
76679;PMS5003;65597;51.520;-0.224;2023-03-31T00:06:47;6;3;
76679;PMS5003;65597;51.520;-0.224;2023-03-31T00:09:13;6;5;
76679;PMS5003;65597;51.520;-0.224;2023-03-31T00:11:37;5;3;
76679;PMS5003;65597;51.520;-0.224;2023-03-31T00:14:03;5;4;
76679;PMS5003;65597;51.520;-0.224;2023-03-31T00:16:28;9;5;
76679;PMS5003;65597;51.520;-0.224;2023-03-31T00:18:55;5;4;
76679;PMS5003;65597;51.520;-0.224;2023-03-31T00:21:20;6;6;
76679;PMS5003;65597;51.520;-0.224;2023-03-31T00:23:45;6;5;
76679;PMS5003;65597;51.520;-0.224;2023-03-31T00:26:10;6;4;
76679;PMS5003;65597;51.520;-0.224;2023-03-31T00:28:35;6;4;
76679;PMS5003;65597;51.520;-0.224;2023-03-31T00:31:02;3;2;
76679;PMS5003;65597;51.520;-0.224;2023-03-31T00:33:26;5;3;
76679;PMS5003;65597;51.520;-0.224;2023-03-31T00:35:51;8;4;
76679;PMS5003;65597;51.520;-0.224;2023-03-31T00:38:17;4;2;
76679;PMS5003;65597;51.520;-0.224;2023-03-31T00:40:44;5;3;
76679;PMS5003;65597;51.520;-0.224;2023-03-31T00:43:25;4;3;
76679;PMS5003;65597;51.520;-0.224;2023-03-31T00:45:33;8;3;
76679;PMS5003;65597;51.520;-0.224;2023-03-31T00:48:01;4;3;
76679;PMS5003;65597;51.520;-0.224;2023-03-31T00:50:25;2;1;
76679;PMS5003;65597;51.520;-0.224;2023-03-31T00:52:50;2;2;
76679;PMS5003;65597;51.520;-0.224;2023-03-31T00:55:16;2;2;
76679;PMS5003;65597;51.520;-0.224;2023-03-31T00:57:40;5;3;
76679;PMS5003;65597;51.520;-0.224;2023-03-31T01:00:07;1;1;
76679;PMS5003;65597;51.520;-0.224;2023-03-31T01:02:31;3;2;
76679;PMS5003;65597;51.520;-0.224;2023-03-31T01:04:58;4;2;
76679;PMS5003;65597;51.520;-0.224;2023-03-31T01:07:24;3;3;
76679;PMS5003;65597;51.520;-0.224;2023-03-31T01:09:48;8;5;
76679;PMS5003;65597;51.520;-0.224;2023-03-31T01:12:14;4;2;
76679;PMS5003;65597;51.520;-0.224;2023-03-31T01:14:39;7;1;
76679;PMS5003;65597;51.520;-0.224;2023-03-31T01:17:04;1;1;
76679;PMS5003;65597;51.520;-0.224;2023-03-31T01:19:34;5;3;
76679;PMS5003;65597;51.520;-0.224;2023-03-31T01:22:02;4;2;
76679;PMS5003;65597;51.520;-0.224;2023-03-31T01:26:52;3;1;
76679;PMS5003;65597;51.520;-0.224;2023-03-31T01:29:15;4;2;
76679;PMS5003;65597;51.520;-0.224;2023-03-31T01:31:47;5;2;
76679;PMS5003;65597;51.520;-0.224;2023-03-31T01:34:09;4;2;
76679;PMS5003;65597;51.520;-0.224;2023-03-31T01:36:34;3;3;
76679;PMS5003;65597;51.520;-0.224;2023-03-31T01:41:20;3;1;
76679;PMS5003;65597;51.520;-0.224;2023-03-31T01:43:45;3;2;
76679;PMS5003;65597;51.520;-0.224;2023-03-31T01:46:10;2;1;
76679;PMS5003;65597;51.520;-0.224;2023-03-31T01:48:37;3;1;
76679;PMS5003;65597;51.520;-0.224;2023-03-31T01:51:00;3;2;
76679;PMS5003;65597;51.520;-0.224;2023-03-31T01:53:27;2;2;
76679;PMS5003;65597;51.520;-0.224;2023-03-31T01:55:52;1;1;
76679;PMS5003;65597;51.520;-0.224;2023-03-31T01:58:17;3;2;
76679;PMS5003;65597;51.520;-0.224;2023-03-31T02:00:42;4;3;
76679;PMS5003;65597;51.520;-0.224;2023-03-31T02:03:08;4;2;
76679;PMS5003;65597;51.520;-0.224;2023-03-31T02:05:33;8;2;
76679;PMS5003;65597;51.520;-0.224;2023-03-31T02:07:58;2;2;
76679;PMS5003;65597;51.520;-0.224;2023-03-31T02:10:23;3;2;
76679;PMS5003;65597;51.520;-0.224;2023-03-31T02:12:48;2;1;
76679;PMS5003;65597;51.520;-0.224;2023-03-31T02:15:14;5;2;
76679;PMS5003;65597;51.520;-0.224;2023-03-31T02:17:44;3;2;
76679;PMS5003;65597;51.520;-0.224;2023-03-31T02:20:06;1;1;
76679;PMS5003;65597;51.520;-0.224;2023-03-31T02:22:30;3;2;
76679;PMS5003;65597;51.520;-0.224;2023-03-31T02:24:55;4;1;
76679;PMS5003;65597;51.520;-0.224;2023-03-31T02:27:21;3;3;
76679;PMS5003;65597;51.520;-0.224;2023-03-31T02:29:46;3;3;
76679;PMS5003;65597;51.520;-0.224;2023-03-31T02:32:14;4;3;
76679;PMS5003;65597;51.520;-0.224;2023-03-31T02:34:37;3;3;
76679;PMS5003;65597;51.520;-0.224;2023-03-31T02:37:02;3;2;
76679;PMS5003;65597;51.520;-0.224;2023-03-31T02:39:29;5;4;
76679;PMS5003;65597;51.520;-0.224;2023-03-31T02:41:53;3;2;
76679;PMS5003;65597;51.520;-0.224;2023-03-31T02:44:19;5;5;
76679;PMS5003;65597;51.520;-0.224;2023-03-31T02:46:44;4;3;
76679;PMS5003;65597;51.520;-0.224;2023-03-31T02:49:10;1;1;
76679;PMS5003;65597;51.520;-0.224;2023-03-31T02:51:39;1;1;
76679;PMS5003;65597;51.520;-0.224;2023-03-31T02:54:07;3;3;
76679;PMS5003;65597;51.520;-0.224;2023-03-31T02:56:32;7;4;
76679;PMS5003;65597;51.520;-0.224;2023-03-31T02:58:55;5;4;
76679;PMS5003;65597;51.520;-0.224;2023-03-31T03:01:22;6;4;
76679;PMS5003;65597;51.520;-0.224;2023-03-31T03:03:43;7;4;
76679;PMS5003;65597;51.520;-0.224;2023-03-31T03:06:10;3;3;
76679;PMS5003;65597;51.520;-0.224;2023-03-31T03:08:36;4;2;
76679;PMS5003;65597;51.520;-0.224;2023-03-31T03:11:00;10;3;
76679;PMS5003;65597;51.520;-0.224;2023-03-31T03:13:25;4;3;
76679;PMS5003;65597;51.520;-0.224;2023-03-31T03:15:50;3;3;
76679;PMS5003;65597;51.520;-0.224;2023-03-31T03:18:14;2;1;
76679;PMS5003;65597;51.520;-0.224;2023-03-31T03:20:42;4;3;
76679;PMS5003;65597;51.520;-0.224;2023-03-31T03:23:05;7;5;
76679;PMS5003;65597;51.520;-0.224;2023-03-31T03:25:31;9;7;
76679;PMS5003;65597;51.520;-0.224;2023-03-31T03:27:56;12;7;
76679;PMS5003;65597;51.520;-0.224;2023-03-31T03:30:26;9;6;
76679;PMS5003;65597;51.520;-0.224;2023-03-31T03:32:48;9;5;
76679;PMS5003;65597;51.520;-0.224;2023-03-31T03:35:12;7;6;
76679;PMS5003;65597;51.520;-0.224;2023-03-31T03:37:37;17;9;
76679;PMS5003;65597;51.520;-0.224;2023-03-31T03:40:04;6;4;
76679;PMS5003;65597;51.520;-0.224;2023-03-31T03:42:29;7;7;
76679;PMS5003;65597;51.520;-0.224;2023-03-31T03:44:54;9;5;
76679;PMS5003;65597;51.520;-0.224;2023-03-31T03:47:20;5;4;
76679;PMS5003;65597;51.520;-0.224;2023-03-31T03:49:45;9;8;
76679;PMS5003;65597;51.520;-0.224;2023-03-31T03:52:11;8;3;
76679;PMS5003;65597;51.520;-0.224;2023-03-31T03:54:36;5;3;
76679;PMS5003;65597;51.520;-0.224;2023-03-31T03:57:01;10;5;
76679;PMS5003;65597;51.520;-0.224;2023-03-31T03:59:26;8;4;
76679;PMS5003;65597;51.520;-0.224;2023-03-31T04:01:52;5;4;
76679;PMS5003;65597;51.520;-0.224;2023-03-31T04:04:18;9;4;
76679;PMS5003;65597;51.520;-0.224;2023-03-31T04:06:43;5;3;
76679;PMS5003;65597;51.520;-0.224;2023-03-31T04:09:08;7;5;
76679;PMS5003;65597;51.520;-0.224;2023-03-31T04:11:34;9;7;
76679;PMS5003;65597;51.520;-0.224;2023-03-31T04:13:59;6;3;
76679;PMS5003;65597;51.520;-0.224;2023-03-31T04:16:24;6;4;
76679;PMS5003;65597;51.520;-0.224;2023-03-31T04:18:50;10;7;
76679;PMS5003;65597;51.520;-0.224;2023-03-31T04:21:15;6;4;
76679;PMS5003;65597;51.520;-0.224;2023-03-31T04:23:41;4;3;
76679;PMS5003;65597;51.520;-0.224;2023-03-31T04:26:06;8;5;
76679;PMS5003;65597;51.520;-0.224;2023-03-31T04:28:32;6;5;
76679;PMS5003;65597;51.520;-0.224;2023-03-31T04:30:57;7;6;
76679;PMS5003;65597;51.520;-0.224;2023-03-31T04:33:24;7;4;
76679;PMS5003;65597;51.520;-0.224;2023-03-31T04:35:53;7;5;
76679;PMS5003;65597;51.520;-0.224;2023-03-31T04:38:14;7;6;
76679;PMS5003;65597;51.520;-0.224;2023-03-31T04:40:39;6;5;
76679;PMS5003;65597;51.520;-0.224;2023-03-31T04:43:04;5;3;
76679;PMS5003;65597;51.520;-0.224;2023-03-31T04:45:29;7;4;
76679;PMS5003;65597;51.520;-0.224;2023-03-31T04:47:55;10;7;
76679;PMS5003;65597;51.520;-0.224;2023-03-31T04:50:20;7;6;
76679;PMS5003;65597;51.520;-0.224;2023-03-31T04:52:46;9;3;
76679;PMS5003;65597;51.520;-0.224;2023-03-31T04:55:11;11;4;
76679;PMS5003;65597;51.520;-0.224;2023-03-31T04:57:36;14;5;
76679;PMS5003;65597;51.520;-0.224;2023-03-31T05:00:02;7;4;
76679;PMS5003;65597;51.520;-0.224;2023-03-31T05:02:27;8;7;
76679;PMS5003;65597;51.520;-0.224;2023-03-31T05:04:52;7;4;
76679;PMS5003;65597;51.520;-0.224;2023-03-31T05:07:18;5;4;
76679;PMS5003;65597;51.520;-0.224;2023-03-31T05:09:43;10;7;
76679;PMS5003;65597;51.520;-0.224;2023-03-31T05:12:08;7;5;
76679;PMS5003;65597;51.520;-0.224;2023-03-31T05:14:33;5;3;
76679;PMS5003;65597;51.520;-0.224;2023-03-31T05:16:59;13;5;
76679;PMS5003;65597;51.520;-0.224;2023-03-31T05:19:24;5;3;
76679;PMS5003;65597;51.520;-0.224;2023-03-31T05:21:50;5;4;
76679;PMS5003;65597;51.520;-0.224;2023-03-31T05:24:15;5;4;
76679;PMS5003;65597;51.520;-0.224;2023-03-31T05:26:40;9;6;
76679;PMS5003;65597;51.520;-0.224;2023-03-31T05:29:05;6;3;
76679;PMS5003;65597;51.520;-0.224;2023-03-31T05:31:31;6;4;
76679;PMS5003;65597;51.520;-0.224;2023-03-31T05:33:56;5;5;
76679;PMS5003;65597;51.520;-0.224;2023-03-31T05:36:21;4;4;
76679;PMS5003;65597;51.520;-0.224;2023-03-31T05:38:47;9;6;
76679;PMS5003;65597;51.520;-0.224;2023-03-31T05:41:12;8;4;
76679;PMS5003;65597;51.520;-0.224;2023-03-31T05:43:38;6;5;
76679;PMS5003;65597;51.520;-0.224;2023-03-31T05:46:04;8;4;
76679;PMS5003;65597;51.520;-0.224;2023-03-31T05:48:29;6;5;
76679;PMS5003;65597;51.520;-0.224;2023-03-31T05:50:55;8;4;
76679;PMS5003;65597;51.520;-0.224;2023-03-31T05:53:20;4;3;
76679;PMS5003;65597;51.520;-0.224;2023-03-31T05:55:46;4;4;
76679;PMS5003;65597;51.520;-0.224;2023-03-31T05:58:11;5;3;
76679;PMS5003;65597;51.520;-0.224;2023-03-31T06:00:37;7;3;
76679;PMS5003;65597;51.520;-0.224;2023-03-31T06:03:02;14;3;
76679;PMS5003;65597;51.520;-0.224;2023-03-31T06:05:27;3;3;
76679;PMS5003;65597;51.520;-0.224;2023-03-31T06:07:53;4;3;
76679;PMS5003;65597;51.520;-0.224;2023-03-31T06:10:23;3;2;
76679;PMS5003;65597;51.520;-0.224;2023-03-31T06:12:43;4;1;
76679;PMS5003;65597;51.520;-0.224;2023-03-31T06:15:09;4;3;
76679;PMS5003;65597;51.520;-0.224;2023-03-31T06:17:34;1;1;
76679;PMS5003;65597;51.520;-0.224;2023-03-31T06:20:00;3;2;
76679;PMS5003;65597;51.520;-0.224;2023-03-31T06:22:25;3;2;
76679;PMS5003;65597;51.520;-0.224;2023-03-31T06:24:50;3;1;
76679;PMS5003;65597;51.520;-0.224;2023-03-31T06:27:16;1;1;
76679;PMS5003;65597;51.520;-0.224;2023-03-31T06:29:41;3;3;
76679;PMS5003;65597;51.520;-0.224;2023-03-31T06:32:07;1;1;
76679;PMS5003;65597;51.520;-0.224;2023-03-31T06:34:33;3;3;
76679;PMS5003;65597;51.520;-0.224;2023-03-31T06:36:58;3;2;
76679;PMS5003;65597;51.520;-0.224;2023-03-31T06:39:23;3;2;
76679;PMS5003;65597;51.520;-0.224;2023-03-31T06:41:48;4;2;
76679;PMS5003;65597;51.520;-0.224;2023-03-31T06:44:14;6;2;
76679;PMS5003;65597;51.520;-0.224;2023-03-31T06:46:39;5;3;
76679;PMS5003;65597;51.520;-0.224;2023-03-31T06:49:04;4;2;
76679;PMS5003;65597;51.520;-0.224;2023-03-31T06:51:29;6;2;
76679;PMS5003;65597;51.520;-0.224;2023-03-31T06:53:55;4;4;
76679;PMS5003;65597;51.520;-0.224;2023-03-31T06:56:20;4;3;
76679;PMS5003;65597;51.520;-0.224;2023-03-31T06:58:47;6;4;
76679;PMS5003;65597;51.520;-0.224;2023-03-31T07:01:11;5;3;
76679;PMS5003;65597;51.520;-0.224;2023-03-31T07:03:37;5;3;
76679;PMS5003;65597;51.520;-0.224;2023-03-31T07:06:02;4;2;
76679;PMS5003;65597;51.520;-0.224;2023-03-31T07:08:28;7;5;
76679;PMS5003;65597;51.520;-0.224;2023-03-31T07:10:54;9;7;
76679;PMS5003;65597;51.520;-0.224;2023-03-31T07:13:18;7;5;
76679;PMS5003;65597;51.520;-0.224;2023-03-31T07:15:45;10;7;
76679;PMS5003;65597;51.520;-0.224;2023-03-31T07:18:09;9;6;
76679;PMS5003;65597;51.520;-0.224;2023-03-31T07:20:34;6;3;
76679;PMS5003;65597;51.520;-0.224;2023-03-31T07:23:02;7;4;
76679;PMS5003;65597;51.520;-0.224;2023-03-31T07:25:25;13;7;
76679;PMS5003;65597;51.520;-0.224;2023-03-31T07:27:51;6;5;
76679;PMS5003;65597;51.520;-0.224;2023-03-31T07:30:17;12;8;
76679;PMS5003;65597;51.520;-0.224;2023-03-31T07:32:41;8;8;
76679;PMS5003;65597;51.520;-0.224;2023-03-31T07:35:09;6;5;
76679;PMS5003;65597;51.520;-0.224;2023-03-31T07:37:33;8;5;
76679;PMS5003;65597;51.520;-0.224;2023-03-31T07:39:57;7;4;
76679;PMS5003;65597;51.520;-0.224;2023-03-31T07:42:23;8;6;
76679;PMS5003;65597;51.520;-0.224;2023-03-31T07:44:48;8;4;
76679;PMS5003;65597;51.520;-0.224;2023-03-31T07:47:13;8;6;
76679;PMS5003;65597;51.520;-0.224;2023-03-31T07:49:38;9;5;
76679;PMS5003;65597;51.520;-0.224;2023-03-31T07:52:04;9;7;
76679;PMS5003;65597;51.520;-0.224;2023-03-31T07:54:34;9;5;
76679;PMS5003;65597;51.520;-0.224;2023-03-31T07:56:54;9;6;
76679;PMS5003;65597;51.520;-0.224;2023-03-31T07:59:21;10;5;
76679;PMS5003;65597;51.520;-0.224;2023-03-31T08:01:50;7;5;
76679;PMS5003;65597;51.520;-0.224;2023-03-31T08:04:11;9;7;
76679;PMS5003;65597;51.520;-0.224;2023-03-31T08:06:36;11;8;
76679;PMS5003;65597;51.520;-0.224;2023-03-31T08:09:02;7;6;
76679;PMS5003;65597;51.520;-0.224;2023-03-31T08:11:29;8;7;
76679;PMS5003;65597;51.520;-0.224;2023-03-31T08:13:53;10;9;
76679;PMS5003;65597;51.520;-0.224;2023-03-31T08:16:18;12;9;
76679;PMS5003;65597;51.520;-0.224;2023-03-31T08:18:43;12;8;
76679;PMS5003;65597;51.520;-0.224;2023-03-31T08:21:08;16;10;
76679;PMS5003;65597;51.520;-0.224;2023-03-31T08:23:35;15;7;
76679;PMS5003;65597;51.520;-0.224;2023-03-31T08:26:06;7;5;
76679;PMS5003;65597;51.520;-0.224;2023-03-31T08:28:25;7;7;
76679;PMS5003;65597;51.520;-0.224;2023-03-31T08:30:50;9;5;
76679;PMS5003;65597;51.520;-0.224;2023-03-31T08:33:16;12;6;
76679;PMS5003;65597;51.520;-0.224;2023-03-31T08:35:41;7;4;
76679;PMS5003;65597;51.520;-0.224;2023-03-31T08:38:07;7;5;
76679;PMS5003;65597;51.520;-0.224;2023-03-31T08:40:32;8;5;
76679;PMS5003;65597;51.520;-0.224;2023-03-31T08:42:59;9;6;
76679;PMS5003;65597;51.520;-0.224;2023-03-31T08:45:24;15;9;
76679;PMS5003;65597;51.520;-0.224;2023-03-31T08:47:51;6;5;
76679;PMS5003;65597;51.520;-0.224;2023-03-31T08:50:15;9;3;
76679;PMS5003;65597;51.520;-0.224;2023-03-31T08:52:41;4;2;
76679;PMS5003;65597;51.520;-0.224;2023-03-31T08:55:06;13;8;
76679;PMS5003;65597;51.520;-0.224;2023-03-31T08:57:31;7;5;
76679;PMS5003;65597;51.520;-0.224;2023-03-31T08:59:56;8;7;
76679;PMS5003;65597;51.520;-0.224;2023-03-31T09:02:23;6;5;
76679;PMS5003;65597;51.520;-0.224;2023-03-31T09:05:00;6;4;
76679;PMS5003;65597;51.520;-0.224;2023-03-31T09:07:14;9;6;
76679;PMS5003;65597;51.520;-0.224;2023-03-31T09:09:42;4;4;
76679;PMS5003;65597;51.520;-0.224;2023-03-31T09:12:03;5;4;
76679;PMS5003;65597;51.520;-0.224;2023-03-31T09:14:29;13;5;
76679;PMS5003;65597;51.520;-0.224;2023-03-31T09:16:56;5;4;
76679;PMS5003;65597;51.520;-0.224;2023-03-31T09:19:20;6;4;
76679;PMS5003;65597;51.520;-0.224;2023-03-31T09:21:44;14;7;
76679;PMS5003;65597;51.520;-0.224;2023-03-31T09:24:12;11;6;
76679;PMS5003;65597;51.520;-0.224;2023-03-31T09:26:37;8;5;
76679;PMS5003;65597;51.520;-0.224;2023-03-31T09:29:00;16;5;
76679;PMS5003;65597;51.520;-0.224;2023-03-31T09:31:26;20;7;
76679;PMS5003;65597;51.520;-0.224;2023-03-31T09:33:52;4;4;
76679;PMS5003;65597;51.520;-0.224;2023-03-31T09:36:17;7;5;
76679;PMS5003;65597;51.520;-0.224;2023-03-31T09:38:42;4;4;
76679;PMS5003;65597;51.520;-0.224;2023-03-31T09:41:07;7;5;
76679;PMS5003;65597;51.520;-0.224;2023-03-31T09:43:33;7;5;
76679;PMS5003;65597;51.520;-0.224;2023-03-31T09:45:58;7;6;
76679;PMS5003;65597;51.520;-0.224;2023-03-31T09:48:24;4;3;
76679;PMS5003;65597;51.520;-0.224;2023-03-31T09:50:50;7;4;
76679;PMS5003;65597;51.520;-0.224;2023-03-31T09:53:17;9;7;
76679;PMS5003;65597;51.520;-0.224;2023-03-31T09:55:42;5;3;
76679;PMS5003;65597;51.520;-0.224;2023-03-31T09:58:11;4;3;
76679;PMS5003;65597;51.520;-0.224;2023-03-31T10:00:32;5;4;
76679;PMS5003;65597;51.520;-0.224;2023-03-31T10:02:56;6;5;
76679;PMS5003;65597;51.520;-0.224;2023-03-31T10:05:25;3;3;
76679;PMS5003;65597;51.520;-0.224;2023-03-31T10:07:47;6;4;
76679;PMS5003;65597;51.520;-0.224;2023-03-31T10:10:16;5;3;
76679;PMS5003;65597;51.520;-0.224;2023-03-31T10:12:38;8;5;
76679;PMS5003;65597;51.520;-0.224;2023-03-31T10:17:28;2;1;
76679;PMS5003;65597;51.520;-0.224;2023-03-31T10:19:55;4;2;
76679;PMS5003;65597;51.520;-0.224;2023-03-31T10:24:44;6;3;
76679;PMS5003;65597;51.520;-0.224;2023-03-31T10:27:13;2;2;
76679;PMS5003;65597;51.520;-0.224;2023-03-31T10:29:35;3;2;
76679;PMS5003;65597;51.520;-0.224;2023-03-31T10:32:01;2;1;
76679;PMS5003;65597;51.520;-0.224;2023-03-31T10:34:26;3;2;
76679;PMS5003;65597;51.520;-0.224;2023-03-31T10:36:51;1;0;
76679;PMS5003;65597;51.520;-0.224;2023-03-31T10:39:17;2;1;
76679;PMS5003;65597;51.520;-0.224;2023-03-31T10:41:42;3;3;
76679;PMS5003;65597;51.520;-0.224;2023-03-31T10:44:28;2;2;
76679;PMS5003;65597;51.520;-0.224;2023-03-31T10:46:39;2;2;
76679;PMS5003;65597;51.520;-0.224;2023-03-31T10:48:59;0;0;
76679;PMS5003;65597;51.520;-0.224;2023-03-31T10:51:25;3;1;
76679;PMS5003;65597;51.520;-0.224;2023-03-31T10:53:50;1;1;
76679;PMS5003;65597;51.520;-0.224;2023-03-31T10:56:18;1;0;
76679;PMS5003;65597;51.520;-0.224;2023-03-31T10:58:45;3;2;
76679;PMS5003;65597;51.520;-0.224;2023-03-31T11:01:11;1;1;
76679;PMS5003;65597;51.520;-0.224;2023-03-31T11:03:36;1;1;
76679;PMS5003;65597;51.520;-0.224;2023-03-31T11:05:57;2;1;
76679;PMS5003;65597;51.520;-0.224;2023-03-31T11:08:25;2;2;
76679;PMS5003;65597;51.520;-0.224;2023-03-31T11:10:53;1;1;
76679;PMS5003;65597;51.520;-0.224;2023-03-31T11:13:15;2;2;
76679;PMS5003;65597;51.520;-0.224;2023-03-31T11:15:39;2;1;
76679;PMS5003;65597;51.520;-0.224;2023-03-31T11:18:09;0;0;
76679;PMS5003;65597;51.520;-0.224;2023-03-31T11:20:30;1;1;
76679;PMS5003;65597;51.520;-0.224;2023-03-31T11:22:56;1;1;
76679;PMS5003;65597;51.520;-0.224;2023-03-31T11:25:22;1;1;
76679;PMS5003;65597;51.520;-0.224;2023-03-31T11:27:49;1;1;
76679;PMS5003;65597;51.520;-0.224;2023-03-31T11:30:12;0;0;
76679;PMS5003;65597;51.520;-0.224;2023-03-31T11:32:41;0;0;
76679;PMS5003;65597;51.520;-0.224;2023-03-31T11:35:06;2;2;
76679;PMS5003;65597;51.520;-0.224;2023-03-31T11:37:31;1;1;
76679;PMS5003;65597;51.520;-0.224;2023-03-31T11:39:56;2;2;
76679;PMS5003;65597;51.520;-0.224;2023-03-31T11:42:18;2;1;
76679;PMS5003;65597;51.520;-0.224;2023-03-31T11:44:44;2;2;
76679;PMS5003;65597;51.520;-0.224;2023-03-31T11:47:09;1;1;
76679;PMS5003;65597;51.520;-0.224;2023-03-31T11:49:36;2;2;
76679;PMS5003;65597;51.520;-0.224;2023-03-31T11:52:01;3;2;
76679;PMS5003;65597;51.520;-0.224;2023-03-31T11:54:27;1;1;
76679;PMS5003;65597;51.520;-0.224;2023-03-31T11:56:51;3;3;
76679;PMS5003;65597;51.520;-0.224;2023-03-31T11:59:16;5;4;
76679;PMS5003;65597;51.520;-0.224;2023-03-31T12:01:43;3;3;
76679;PMS5003;65597;51.520;-0.224;2023-03-31T12:04:08;2;2;
76679;PMS5003;65597;51.520;-0.224;2023-03-31T12:06:33;2;2;
76679;PMS5003;65597;51.520;-0.224;2023-03-31T12:09:01;1;1;
76679;PMS5003;65597;51.520;-0.224;2023-03-31T12:11:24;1;1;
76679;PMS5003;65597;51.520;-0.224;2023-03-31T12:13:49;1;1;
76679;PMS5003;65597;51.520;-0.224;2023-03-31T12:16:16;2;2;
76679;PMS5003;65597;51.520;-0.224;2023-03-31T12:18:40;2;1;
76679;PMS5003;65597;51.520;-0.224;2023-03-31T12:21:05;3;2;
76679;PMS5003;65597;51.520;-0.224;2023-03-31T12:23:32;2;2;
76679;PMS5003;65597;51.520;-0.224;2023-03-31T12:25:57;1;1;
76679;PMS5003;65597;51.520;-0.224;2023-03-31T12:28:21;1;1;
76679;PMS5003;65597;51.520;-0.224;2023-03-31T12:30:47;1;1;
76679;PMS5003;65597;51.520;-0.224;2023-03-31T12:33:14;3;3;
76679;PMS5003;65597;51.520;-0.224;2023-03-31T12:35:40;1;1;
76679;PMS5003;65597;51.520;-0.224;2023-03-31T12:38:07;0;0;
76679;PMS5003;65597;51.520;-0.224;2023-03-31T12:40:32;1;1;
76679;PMS5003;65597;51.520;-0.224;2023-03-31T12:43:04;0;0;
76679;PMS5003;65597;51.520;-0.224;2023-03-31T12:45:22;2;1;
76679;PMS5003;65597;51.520;-0.224;2023-03-31T12:47:52;1;1;
76679;PMS5003;65597;51.520;-0.224;2023-03-31T12:50:14;1;0;
76679;PMS5003;65597;51.520;-0.224;2023-03-31T12:52:38;2;2;
76679;PMS5003;65597;51.520;-0.224;2023-03-31T12:55:07;1;1;
76679;PMS5003;65597;51.520;-0.224;2023-03-31T12:57:27;1;1;
76679;PMS5003;65597;51.520;-0.224;2023-03-31T13:02:20;2;2;
76679;PMS5003;65597;51.520;-0.224;2023-03-31T13:04:48;3;1;
76679;PMS5003;65597;51.520;-0.224;2023-03-31T13:07:11;0;0;
76679;PMS5003;65597;51.520;-0.224;2023-03-31T13:09:40;3;2;
76679;PMS5003;65597;51.520;-0.224;2023-03-31T13:14:27;1;0;
76679;PMS5003;65597;51.520;-0.224;2023-03-31T13:16:50;4;3;
76679;PMS5003;65597;51.520;-0.224;2023-03-31T13:24:06;4;3;
76679;PMS5003;65597;51.520;-0.224;2023-03-31T13:26:36;2;2;
76679;PMS5003;65597;51.520;-0.224;2023-03-31T13:31:22;1;1;
76679;PMS5003;65597;51.520;-0.224;2023-03-31T13:33:50;1;1;
76679;PMS5003;65597;51.520;-0.224;2023-03-31T13:36:22;2;2;
76679;PMS5003;65597;51.520;-0.224;2023-03-31T13:38:42;2;1;
76679;PMS5003;65597;51.520;-0.224;2023-03-31T13:41:14;1;1;
76679;PMS5003;65597;51.520;-0.224;2023-03-31T13:43:35;3;2;
76679;PMS5003;65597;51.520;-0.224;2023-03-31T13:45:58;2;2;
76679;PMS5003;65597;51.520;-0.224;2023-03-31T13:48:26;5;3;
76679;PMS5003;65597;51.520;-0.224;2023-03-31T13:50:49;2;2;
76679;PMS5003;65597;51.520;-0.224;2023-03-31T13:53:16;5;2;
76679;PMS5003;65597;51.520;-0.224;2023-03-31T14:00:29;3;3;
76679;PMS5003;65597;51.520;-0.224;2023-03-31T14:02:56;1;0;
76679;PMS5003;65597;51.520;-0.224;2023-03-31T14:05:22;1;1;
76679;PMS5003;65597;51.520;-0.224;2023-03-31T14:07:44;1;1;
76679;PMS5003;65597;51.520;-0.224;2023-03-31T14:12:35;2;1;
76679;PMS5003;65597;51.520;-0.224;2023-03-31T14:15:00;2;1;
76679;PMS5003;65597;51.520;-0.224;2023-03-31T14:17:26;1;1;
76679;PMS5003;65597;51.520;-0.224;2023-03-31T14:19:54;1;1;
76679;PMS5003;65597;51.520;-0.224;2023-03-31T14:22:18;3;2;
76679;PMS5003;65597;51.520;-0.224;2023-03-31T14:24:43;2;1;
76679;PMS5003;65597;51.520;-0.224;2023-03-31T14:27:12;1;1;
76679;PMS5003;65597;51.520;-0.224;2023-03-31T14:29:34;2;2;
76679;PMS5003;65597;51.520;-0.224;2023-03-31T14:31:58;2;1;
76679;PMS5003;65597;51.520;-0.224;2023-03-31T14:34:31;1;1;
76679;PMS5003;65597;51.520;-0.224;2023-03-31T14:36:50;2;2;
76679;PMS5003;65597;51.520;-0.224;2023-03-31T14:39:17;1;1;
76679;PMS5003;65597;51.520;-0.224;2023-03-31T14:41:39;2;2;
76679;PMS5003;65597;51.520;-0.224;2023-03-31T14:44:05;2;2;
76679;PMS5003;65597;51.520;-0.224;2023-03-31T14:46:31;1;1;
76679;PMS5003;65597;51.520;-0.224;2023-03-31T14:48:56;1;1;
76679;PMS5003;65597;51.520;-0.224;2023-03-31T14:51:23;2;2;
76679;PMS5003;65597;51.520;-0.224;2023-03-31T14:53:47;3;3;
76679;PMS5003;65597;51.520;-0.224;2023-03-31T14:56:13;2;2;
76679;PMS5003;65597;51.520;-0.224;2023-03-31T14:58:39;1;1;
76679;PMS5003;65597;51.520;-0.224;2023-03-31T15:01:03;0;0;
76679;PMS5003;65597;51.520;-0.224;2023-03-31T15:03:28;1;1;
76679;PMS5003;65597;51.520;-0.224;2023-03-31T15:05:55;1;1;
76679;PMS5003;65597;51.520;-0.224;2023-03-31T15:08:20;1;1;
76679;PMS5003;65597;51.520;-0.224;2023-03-31T15:10:47;3;2;
76679;PMS5003;65597;51.520;-0.224;2023-03-31T15:13:11;2;1;
76679;PMS5003;65597;51.520;-0.224;2023-03-31T15:15:37;0;0;
76679;PMS5003;65597;51.520;-0.224;2023-03-31T15:18:01;1;1;
76679;PMS5003;65597;51.520;-0.224;2023-03-31T15:20:28;1;1;
76679;PMS5003;65597;51.520;-0.224;2023-03-31T15:22:52;1;1;
76679;PMS5003;65597;51.520;-0.224;2023-03-31T15:25:17;1;1;
76679;PMS5003;65597;51.520;-0.224;2023-03-31T15:27:49;2;1;
76679;PMS5003;65597;51.520;-0.224;2023-03-31T15:30:12;0;0;
76679;PMS5003;65597;51.520;-0.224;2023-03-31T15:32:34;1;1;
76679;PMS5003;65597;51.520;-0.224;2023-03-31T15:34:59;0;0;
76679;PMS5003;65597;51.520;-0.224;2023-03-31T15:37:25;0;0;
76679;PMS5003;65597;51.520;-0.224;2023-03-31T15:39:50;0;0;
76679;PMS5003;65597;51.520;-0.224;2023-03-31T15:42:15;1;1;
76679;PMS5003;65597;51.520;-0.224;2023-03-31T15:44:43;0;0;
76679;PMS5003;65597;51.520;-0.224;2023-03-31T15:47:10;0;0;
76679;PMS5003;65597;51.520;-0.224;2023-03-31T15:49:32;0;0;
76679;PMS5003;65597;51.520;-0.224;2023-03-31T15:51:59;0;0;
76679;PMS5003;65597;51.520;-0.224;2023-03-31T15:54:27;0;0;
76679;PMS5003;65597;51.520;-0.224;2023-03-31T15:56:48;0;0;
76679;PMS5003;65597;51.520;-0.224;2023-03-31T16:01:40;0;0;
76679;PMS5003;65597;51.520;-0.224;2023-03-31T16:04:05;0;0;
76679;PMS5003;65597;51.520;-0.224;2023-03-31T16:06:37;0;0;
76679;PMS5003;65597;51.520;-0.224;2023-03-31T16:08:56;1;0;
76679;PMS5003;65597;51.520;-0.224;2023-03-31T16:11:21;0;0;
76679;PMS5003;65597;51.520;-0.224;2023-03-31T16:13:47;0;0;
76679;PMS5003;65597;51.520;-0.224;2023-03-31T16:16:14;0;0;
76679;PMS5003;65597;51.520;-0.224;2023-03-31T16:18:38;1;0;
76679;PMS5003;65597;51.520;-0.224;2023-03-31T16:21:04;1;1;
76679;PMS5003;65597;51.520;-0.224;2023-03-31T16:23:29;0;0;
76679;PMS5003;65597;51.520;-0.224;2023-03-31T16:25:53;0;0;
76679;PMS5003;65597;51.520;-0.224;2023-03-31T16:28:20;0;0;
76679;PMS5003;65597;51.520;-0.224;2023-03-31T16:30:44;0;0;
76679;PMS5003;65597;51.520;-0.224;2023-03-31T16:33:10;0;0;
76679;PMS5003;65597;51.520;-0.224;2023-03-31T16:35:35;1;1;
76679;PMS5003;65597;51.520;-0.224;2023-03-31T16:38:00;1;1;
76679;PMS5003;65597;51.520;-0.224;2023-03-31T16:40:27;0;0;
76679;PMS5003;65597;51.520;-0.224;2023-03-31T16:45:16;0;0;
76679;PMS5003;65597;51.520;-0.224;2023-03-31T16:47:42;0;0;
76679;PMS5003;65597;51.520;-0.224;2023-03-31T16:50:07;1;1;
76679;PMS5003;65597;51.520;-0.224;2023-03-31T16:52:34;1;1;
76679;PMS5003;65597;51.520;-0.224;2023-03-31T16:54:58;1;1;